EST,Max TemperatureF,Mean TemperatureF,Min TemperatureF,Max Dew PointF,MeanDew PointF,Min DewpointF,Max Humidity, Mean Humidity, Min Humidity, Max Sea Level PressureIn, Mean Sea Level PressureIn, Min Sea Level PressureIn, Max VisibilityMiles, Mean VisibilityMiles, Min VisibilityMiles, Max Wind SpeedMPH, Mean Wind SpeedMPH, Max Gust SpeedMPH,PrecipitationIn, CloudCover, Events, WindDirDegrees
2012-11-1,48,44,40,39,38,36,93,77,63,29.69,29.64,29.60,10,10,10,13,7,,0.00,6,,236
2012-11-2,49,44,41,36,33,30,81,66,50,29.87,29.76,29.69,10,10,10,17,9,24,0.00,7,Rain,271
2012-11-3,46,42,39,34,30,27,76,63,50,30.05,29.93,29.87,10,10,10,16,9,25,0.00,8,,284
2012-11-4,42,40,39,28,27,26,65,60,56,30.08,30.05,30.04,10,10,10,14,4,20,0.00,8,,331
2012-11-5,41,38,34,26,23,20,63,56,47,30.19,30.11,30.05,10,10,10,13,5,21,0.00,7,,347
2012-11-6,42,35,28,27,23,19,84,62,45,30.24,30.16,30.07,10,10,10,7,3,,0.00,3,,79
2012-11-7,44,39,34,26,20,17,61,48,38,30.07,29.96,29.92,10,10,10,23,7,33,0.00,3,,6
2012-11-8,49,44,38,19,15,9,44,34,21,30.05,29.95,29.88,10,10,10,16,10,30,0.00,2,,331
2012-11-9,54,44,35,32,29,14,85,58,35,30.24,30.16,30.04,10,10,10,15,9,23,0.00,1,,305
2012-11-10,55,48,41,39,38,37,88,71,50,30.40,30.35,30.30,10,6,2,4,1,,0.00,3,,65
2012-11-11,63,48,33,46,40,34,100,79,50,30.48,30.43,30.38,10,8,2,5,2,,0.00,1,,38
2012-11-12,64,52,41,57,50,40,99,83,67,30.43,30.24,30.13,10,8,1,28,7,37,0.28,5,Rain,177
2012-11-13,50,44,38,46,33,24,87,73,44,30.50,30.34,30.18,10,9,4,20,9,32,0.64,6,Rain,311
2012-11-14,47,38,27,26,24,21,89,56,38,30.58,30.51,30.47,10,10,10,9,5,,0.00,3,,22
2012-11-15,44,35,26,30,27,24,92,75,50,30.45,30.39,30.32,10,10,10,6,1,,0.00,0,,76
2012-11-16,50,40,29,31,27,23,94,64,39,30.48,30.38,30.32,10,10,10,8,2,,0.00,0,,39
2012-11-17,54,42,31,32,28,24,87,58,36,30.63,30.58,30.48,10,10,10,7,4,,0.00,0,,62
2012-11-18,49,37,25,35,30,25,96,84,57,30.68,30.62,30.56,10,10,8,7,1,,0.00,0,,46
2012-11-19,51,40,28,34,29,24,100,76,37,30.55,30.42,30.26,10,10,7,6,1,,0.00,1,,61
2012-11-20,51,40,28,36,32,28,96,77,54,30.25,30.18,30.12,10,10,10,5,0,,0.00,1,,125
2012-11-21,55,42,30,34,29,26,99,71,33,30.25,30.21,30.15,10,10,7,5,1,,0.00,1,,144
2012-11-22,54,40,25,31,28,24,96,73,36,30.30,30.23,30.15,10,10,10,4,0,,0.00,0,,0
2012-11-23,55,40,25,39,32,24,96,67,43,30.13,29.91,29.77,10,10,8,16,2,30,0.00,3,,234
2012-11-24,40,37,34,22,19,17,55,48,42,29.96,29.88,29.83,10,10,10,23,15,37,0.00,6,Rain,273
2012-11-25,37,30,24,22,20,17,86,60,45,30.02,29.97,29.92,10,10,10,15,10,22,0.00,5,,257
2012-11-26,46,35,24,25,23,21,90,67,37,30.26,30.15,30.01,10,10,10,16,3,21,0.00,3,,279
2012-11-27,37,34,30,34,32,24,100,93,74,30.28,30.26,30.22,10,5,0,6,2,,0.29,7,Fog-Rain-Snow,36
2012-11-28,41,34,27,28,22,18,84,60,42,30.35,30.28,30.23,10,10,10,15,5,21,0.00,3,,276
2012-11-29,43,34,25,26,23,20,90,69,48,30.41,30.35,30.32,10,10,10,14,5,,0.01,0,,228
2012-11-30,46,34,22,29,26,21,94,72,43,30.40,30.37,30.34,10,10,9,8,1,,0.00,4,,58